Time;durP1;ratioP1;P1;durP2;ratioP2;P2;SDS_P1;SDS_P2;PMS_P1;PMS_P2;Temp;Humidity;BMP_temperature;BMP_pressure;BME280_temperature;BME280_humidity;BME280_pressure;Samples;Min_cycle;Max_cycle;Signal;HPM_P1;HPM_P2
2022/12/23 00:00:11;;;;;;;17.05;10.52;;;;;;;7.65;100.00;99518.91;5065868;28;20090;-76
2022/12/23 00:02:37;;;;;;;18.27;10.52;;;;;;;7.66;100.00;99508.41;5059518;28;20049;-76
2022/12/23 00:05:04;;;;;;;21.58;11.60;;;;;;;7.59;100.00;99506.72;5064595;28;20099;-76
2022/12/23 00:07:30;;;;;;;15.82;10.38;;;;;;;7.60;100.00;99502.38;5064574;28;20493;-76
2022/12/23 00:09:55;;;;;;;19.73;10.80;;;;;;;7.56;100.00;99495.38;5063858;28;20115;-76
2022/12/23 00:15:04;;;;;;;14.93;10.00;;;;;;;7.54;100.00;99491.91;5063332;28;20491;-76
2022/12/23 00:15:12;;;;;;;14.30;10.82;;;;;;;7.43;100.00;99485.00;5064699;28;20044;-76
2022/12/23 00:17:41;;;;;;;19.23;13.25;;;;;;;7.46;100.00;99484.09;5062627;28;20144;-76
2022/12/23 00:20:09;;;;;;;14.57;10.77;;;;;;;7.49;100.00;99477.94;5065216;28;20039;-76
2022/12/23 00:25:18;;;;;;;12.98;8.75;;;;;;;7.47;100.00;99457.84;5060712;28;20068;-76
2022/12/23 00:28:00;;;;;;;12.23;8.77;;;;;;;7.51;100.00;99456.06;5064165;28;20072;-76
2022/12/23 00:30:26;;;;;;;16.85;10.90;;;;;;;7.51;100.00;99450.78;5059775;28;20116;-76
2022/12/23 00:32:52;;;;;;;14.63;10.38;;;;;;;7.55;100.00;99446.41;5064639;28;20028;-76
2022/12/23 00:35:17;;;;;;;14.70;9.32;;;;;;;7.61;100.00;99454.19;5064275;28;20067;-76
2022/12/23 00:37:42;;;;;;;14.27;9.18;;;;;;;7.63;100.00;99453.28;5064359;28;20401;-76
2022/12/23 00:42:55;;;;;;;10.20;7.47;;;;;;;7.68;100.00;99445.38;5064333;28;20398;-76
2022/12/23 00:45:20;;;;;;;11.98;9.07;;;;;;;7.73;100.00;99440.94;5061518;28;20036;-76
2022/12/23 00:50:34;;;;;;;14.90;9.00;;;;;;;7.71;100.00;99424.31;5062079;28;20118;-76
2022/12/23 00:52:59;;;;;;;11.35;7.88;;;;;;;7.78;100.00;99431.25;5065019;28;20028;-76
2022/12/23 00:55:25;;;;;;;11.02;7.95;;;;;;;7.79;100.00;99432.09;5064915;28;20055;-76
2022/12/23 00:57:50;;;;;;;11.57;8.25;;;;;;;7.83;100.00;99420.66;5063169;28;20398;-76
2022/12/23 01:00:16;;;;;;;13.68;8.30;;;;;;;7.91;100.00;99424.03;5062181;28;20025;-76
2022/12/23 01:05:37;;;;;;;9.48;6.75;;;;;;;8.00;100.00;99415.19;5062288;28;20498;-76
2022/12/23 01:08:05;;;;;;;9.05;6.20;;;;;;;8.04;100.00;99411.63;5059114;28;20605;-76
2022/12/23 01:10:30;;;;;;;9.52;6.25;;;;;;;8.13;100.00;99408.88;5062539;28;20045;-76
2022/12/23 01:12:56;;;;;;;9.40;6.22;;;;;;;8.14;100.00;99410.59;5063907;28;20033;-76
2022/12/23 01:15:21;;;;;;;9.63;6.85;;;;;;;8.16;100.00;99406.19;5063444;28;20036;-76
2022/12/23 01:17:47;;;;;;;10.07;6.30;;;;;;;8.20;100.00;99405.28;5061705;28;20407;-76
2022/12/23 01:20:12;;;;;;;6.90;5.13;;;;;;;8.22;100.00;99407.88;5061475;28;20061;-76
2022/12/23 01:22:38;;;;;;;8.55;5.70;;;;;;;8.28;100.00;99402.53;5064176;28;20051;-76
2022/12/23 01:25:03;;;;;;;10.43;5.78;;;;;;;8.34;100.00;99399.81;5062184;28;20410;-76
2022/12/23 01:27:28;;;;;;;8.65;5.63;;;;;;;8.35;100.00;99405.03;5062942;28;20091;-76
2022/12/23 01:29:54;;;;;;;8.25;5.43;;;;;;;8.39;100.00;99400.66;5063674;28;20039;-76
2022/12/23 01:32:19;;;;;;;6.72;4.82;;;;;;;8.44;100.00;99404.06;5061783;28;20033;-76
2022/12/23 01:34:44;;;;;;;8.30;5.10;;;;;;;8.50;100.00;99403.09;5064686;28;20033;-76
2022/12/23 01:37:10;;;;;;;7.57;5.43;;;;;;;8.54;100.00;99391.63;5061213;28;20518;-76
2022/12/23 01:39:35;;;;;;;7.47;4.82;;;;;;;8.55;100.00;99394.25;5063780;28;20040;-76
2022/12/23 01:44:53;;;;;;;6.93;4.25;;;;;;;8.63;100.00;99394.13;5058574;28;20380;-76
2022/12/23 01:47:37;;;;;;;7.38;5.32;;;;;;;8.64;100.00;99394.97;5060172;28;20243;-76
2022/12/23 01:50:20;;;;;;;8.02;4.40;;;;;;;8.63;100.00;99390.63;5060629;28;20072;-76
2022/12/23 01:52:56;;;;;;;8.95;4.20;;;;;;;8.67;100.00;99382.66;5058644;28;20078;-76
2022/12/23 01:55:24;;;;;;;5.57;3.85;;;;;;;8.72;100.00;99380.84;5063595;28;20187;-76
2022/12/23 01:57:51;;;;;;;6.00;3.60;;;;;;;8.73;100.00;99382.56;5060863;28;20036;-76
2022/12/23 02:05:45;;;;;;;6.53;3.47;;;;;;;8.86;100.00;99379.72;5060592;28;20076;-76
2022/12/23 02:11:30;;;;;;;5.70;3.45;;;;;;;8.87;100.00;99382.31;5060347;28;20098;-76
2022/12/23 02:17:29;;;;;;;5.78;3.00;;;;;;;8.89;100.00;99382.28;5059689;28;20502;-76
2022/12/23 02:20:20;;;;;;;4.57;2.65;;;;;;;8.88;100.00;99373.53;5060449;28;20033;-76
2022/12/23 02:23:18;;;;;;;5.50;2.97;;;;;;;8.88;100.00;99377.91;5060058;28;20037;-76
2022/12/23 02:26:01;;;;;;;5.50;2.20;;;;;;;8.90;100.00;99373.50;5059291;28;20418;-76
2022/12/23 02:28:52;;;;;;;7.47;2.78;;;;;;;8.88;100.00;99362.13;5057017;28;20543;-76
2022/12/23 02:31:33;;;;;;;8.27;2.42;;;;;;;8.89;100.00;99366.50;5057105;28;20184;-76
2022/12/23 02:34:14;;;;;;;8.38;2.38;;;;;;;8.91;100.00;99367.34;5060467;28;20044;-76
2022/12/23 02:36:56;;;;;;;4.15;2.00;;;;;;;8.94;100.00;99367.28;5061107;28;20032;-76
2022/12/23 02:39:39;;;;;;;6.78;1.92;;;;;;;8.99;100.00;99360.19;5058383;28;20098;-76
2022/12/23 02:42:15;;;;;;;7.88;2.20;;;;;;;8.99;100.00;99354.91;5056525;28;20075;-76
2022/12/23 02:45:06;;;;;;;7.45;2.20;;;;;;;9.06;100.00;99350.41;5061046;28;20029;-76
2022/12/23 02:47:39;;;;;;;7.07;1.63;;;;;;;9.09;100.00;99350.31;5057818;28;20033;-76
2022/12/23 02:50:18;;;;;;;6.60;2.05;;;;;;;9.09;100.00;99337.16;5056068;28;20546;-77
2022/12/23 02:52:46;;;;;;;11.00;4.13;;;;;;;9.10;100.00;99345.06;5060485;28;20112;-76
2022/12/23 02:55:17;;;;;;;11.40;3.90;;;;;;;9.10;100.00;99345.06;5061414;28;20039;-76
2022/12/23 02:57:47;;;;;;;7.22;2.20;;;;;;;9.14;100.00;99344.09;5061863;28;20483;-76
2022/12/23 03:00:13;;;;;;;9.23;1.52;;;;;;;9.16;100.00;99337.03;5062127;28;20094;-76
2022/12/23 03:02:40;;;;;;;5.70;1.52;;;;;;;9.25;100.00;99349.16;5059819;28;20119;-76
2022/12/23 03:05:22;;;;;;;10.10;1.80;;;;;;;9.33;100.00;99341.97;5062688;28;20036;-76
2022/12/23 03:07:48;;;;;;;8.50;1.30;;;;;;;9.35;100.00;99336.66;5059991;28;20041;-76
2022/12/23 03:10:36;;;;;;;7.75;1.45;;;;;;;9.40;100.00;99340.06;5062787;28;20044;-76
2022/12/23 03:13:17;;;;;;;6.68;1.30;;;;;;;9.37;100.00;99338.38;5055028;28;20484;-76
2022/12/23 03:16:28;;;;;;;10.70;2.00;;;;;;;9.40;100.00;99335.66;5056395;28;20050;-77
2022/12/23 03:19:16;;;;;;;6.10;1.20;;;;;;;9.43;100.00;99335.63;5040891;28;20099;-76
2022/12/23 03:21:50;;;;;;;6.93;1.13;;;;;;;9.43;100.00;99329.47;5057589;28;20035;-76
2022/12/23 03:24:43;;;;;;;6.70;1.42;;;;;;;9.47;100.00;99325.88;5058936;28;20442;-76
2022/12/23 03:27:26;;;;;;;8.20;1.20;;;;;;;9.50;100.00;99332.84;5059908;28;20033;-76
2022/12/23 03:30:08;;;;;;;10.30;2.05;;;;;;;9.52;100.00;99325.78;5060175;28;20040;-76
2022/12/23 03:32:44;;;;;;;6.60;1.40;;;;;;;9.52;100.00;99325.78;5058036;28;20040;-76
2022/12/23 03:35:14;;;;;;;7.95;1.80;;;;;;;9.50;100.00;99322.31;5058727;28;20657;-76
2022/12/23 03:37:44;;;;;;;7.75;1.27;;;;;;;9.51;100.00;99317.03;5061766;28;20047;-77
2022/12/23 03:40:17;;;;;;;4.53;1.10;;;;;;;9.54;100.00;99319.59;5061364;28;20502;-76
2022/12/23 03:42:46;;;;;;;4.03;1.00;;;;;;;9.52;100.00;99323.16;5059316;28;20420;-76
2022/12/23 03:45:29;;;;;;;6.38;1.00;;;;;;;9.54;100.00;99326.63;5061180;28;20040;-76
2022/12/23 03:48:01;;;;;;;8.00;1.25;;;;;;;9.58;100.00;99333.56;5062544;28;20507;-76
2022/12/23 03:50:27;;;;;;;;;;;;;;;9.56;100.00;99341.50;5058719;28;20037;-77
2022/12/23 03:53:09;;;;;;;4.80;0.98;;;;;;;9.54;100.00;99337.16;5060251;28;19936;-77
2022/12/23 03:55:58;;;;;;;7.82;1.80;;;;;;;9.54;100.00;99332.75;5057328;28;20037;-77
2022/12/23 03:58:27;;;;;;;6.35;1.00;;;;;;;9.56;100.00;99336.25;5056634;28;20517;-76
2022/12/23 04:01:00;;;;;;;8.70;1.70;;;;;;;9.55;100.00;99337.13;5060393;28;20029;-77
2022/12/23 04:03:35;;;;;;;10.18;2.85;;;;;;;9.61;100.00;99339.63;5055309;28;20048;-77
2022/12/23 04:06:04;;;;;;;2.72;0.88;;;;;;;9.65;100.00;99333.38;5057125;28;20510;-77
2022/12/23 04:08:36;;;;;;;6.03;1.20;;;;;;;9.61;100.00;99339.63;5061854;28;20036;-76
2022/12/23 04:11:01;;;;;;;4.30;0.93;;;;;;;9.64;100.00;99339.56;5056127;28;20029;-76
2022/12/23 04:13:27;;;;;;;5.45;0.95;;;;;;;9.61;100.00;99336.97;5061173;28;20388;-77
2022/12/23 04:15:53;;;;;;;3.90;0.90;;;;;;;9.59;100.00;99338.81;5061778;28;20036;-77
2022/12/23 04:18:18;;;;;;;4.20;0.90;;;;;;;9.60;100.00;99340.53;5061393;28;20037;-77
2022/12/23 04:20:43;;;;;;;5.30;1.05;;;;;;;9.55;100.00;99337.13;5058882;28;20094;-76
2022/12/23 04:23:09;;;;;;;4.15;0.95;;;;;;;9.58;100.00;99333.56;5058925;28;20041;-76
2022/12/23 04:25:34;;;;;;;6.55;1.10;;;;;;;9.60;100.00;99332.63;5058081;28;20040;-76
2022/12/23 04:27:59;;;;;;;10.23;1.60;;;;;;;9.58;100.00;99329.16;5061452;28;20078;-77
2022/12/23 04:30:25;;;;;;;7.88;1.50;;;;;;;9.63;100.00;99332.56;5060215;28;20029;-77
2022/12/23 04:32:50;;;;;;;6.75;1.10;;;;;;;9.57;100.00;99332.69;5060062;28;20102;-77
2022/12/23 04:35:15;;;;;;;6.18;1.30;;;;;;;9.61;100.00;99339.63;5060141;28;20438;-77
2022/12/23 04:37:41;;;;;;;5.63;0.90;;;;;;;9.64;100.00;99336.94;5062240;28;20388;-77
2022/12/23 04:40:07;;;;;;;5.50;1.23;;;;;;;9.67;100.00;99338.63;5058580;28;20562;-77
2022/12/23 04:42:32;;;;;;;2.90;0.77;;;;;;;9.65;100.00;99336.03;5061454;28;20441;-77
2022/12/23 04:44:57;;;;;;;3.60;0.80;;;;;;;9.62;100.00;99336.09;5058678;28;20156;-77
2022/12/23 04:47:23;;;;;;;2.47;0.70;;;;;;;9.67;100.00;99338.63;5063578;28;20510;-77
2022/12/23 04:49:48;;;;;;;4.63;0.75;;;;;;;9.71;100.00;99334.16;5063097;28;20086;-77
2022/12/23 04:52:13;;;;;;;6.13;0.85;;;;;;;9.74;100.00;99334.09;5065133;28;20032;-77
2022/12/23 04:54:39;;;;;;;4.13;0.75;;;;;;;9.73;100.00;99329.72;5062080;28;20033;-77
2022/12/23 04:57:04;;;;;;;2.50;0.40;;;;;;;9.68;100.00;99344.78;5065097;28;20131;-77
2022/12/23 04:59:30;;;;;;;4.20;0.50;;;;;;;9.65;100.00;99328.13;5064538;28;20033;-77
2022/12/23 05:02:03;;;;;;;3.53;0.88;;;;;;;9.58;100.00;99333.56;5063783;28;20092;-77
2022/12/23 05:04:28;;;;;;;2.92;0.60;;;;;;;9.58;100.00;99339.69;5057542;28;20033;-77
2022/12/23 05:06:53;;;;;;;3.80;0.73;;;;;;;9.56;100.00;99333.59;5060660;28;20037;-77
2022/12/23 05:09:19;;;;;;;2.50;0.70;;;;;;;9.58;100.00;99336.19;5065216;28;20115;-77
2022/12/23 05:11:44;;;;;;;3.38;0.50;;;;;;;9.58;100.00;99339.69;5063406;28;20037;-77
2022/12/23 05:14:10;;;;;;;2.60;0.50;;;;;;;9.60;100.00;99337.88;5047624;28;20078;-77
2022/12/23 05:16:36;;;;;;;3.90;0.63;;;;;;;9.61;100.00;99339.63;5063704;28;20036;-77
2022/12/23 05:19:01;;;;;;;1.83;0.85;;;;;;;9.62;100.00;99336.09;5062209;28;20063;-76
2022/12/23 05:21:26;;;;;;;1.58;0.30;;;;;;;9.61;100.00;99344.03;5064808;28;20036;-77
2022/12/23 05:23:52;;;;;;;2.28;0.40;;;;;;;9.58;100.00;99339.69;5060871;28;20166;-77
2022/12/23 05:26:20;;;;;;;2.33;0.50;;;;;;;9.51;100.00;99332.84;5060720;28;20673;-76
2022/12/23 05:28:45;;;;;;;2.50;0.60;;;;;;;9.41;100.00;99341.81;5063126;28;20032;-77
2022/12/23 05:31:12;;;;;;;1.63;0.43;;;;;;;9.32;100.00;99347.25;5062479;28;20041;-76
2022/12/23 05:33:38;;;;;;;4.30;0.60;;;;;;;9.30;100.00;99343.78;5064384;28;20032;-76
2022/12/23 05:36:04;;;;;;;4.35;1.10;;;;;;;9.32;100.00;99347.25;5062064;28;20551;-77
2022/12/23 05:38:29;;;;;;;4.75;1.45;;;;;;;9.30;100.00;99349.94;5061600;28;20037;-77
2022/12/23 05:40:54;;;;;;;2.88;0.75;;;;;;;9.25;100.00;99356.16;5063678;28;20033;-76
2022/12/23 05:43:20;;;;;;;2.13;0.60;;;;;;;9.28;100.00;99354.34;5062805;28;20067;-76
2022/12/23 05:45:46;;;;;;;3.15;0.60;;;;;;;9.29;100.00;99360.50;5064415;28;20032;-76
2022/12/23 05:48:12;;;;;;;6.40;1.20;;;;;;;9.28;100.00;99354.34;5061691;28;20532;-76
2022/12/23 05:50:38;;;;;;;3.05;0.68;;;;;;;9.32;100.00;99347.25;5064277;28;20155;-76
2022/12/23 05:53:04;;;;;;;4.47;0.82;;;;;;;9.37;100.00;99361.19;5061342;28;20150;-77
2022/12/23 05:55:30;;;;;;;2.30;0.55;;;;;;;9.39;100.00;99357.63;5064290;28;20036;-77
2022/12/23 05:57:55;;;;;;;2.97;0.73;;;;;;;9.43;100.00;99355.81;5062346;28;20031;-77
2022/12/23 06:00:20;;;;;;;2.35;0.57;;;;;;;9.42;100.00;99354.06;5062465;28;20044;-77
2022/12/23 06:02:46;;;;;;;3.15;0.52;;;;;;;9.45;100.00;99354.00;5060849;28;20047;-77
2022/12/23 06:05:12;;;;;;;4.05;1.20;;;;;;;9.44;100.00;99360.19;5061346;28;20103;-77
2022/12/23 06:07:39;;;;;;;2.22;0.60;;;;;;;9.44;100.00;99358.41;5060549;28;20045;-76
2022/12/23 06:10:06;;;;;;;2.28;0.77;;;;;;;9.46;100.00;99360.13;5064626;28;20048;-76
2022/12/23 06:12:31;;;;;;;2.60;0.60;;;;;;;9.45;100.00;99359.28;5062107;28;20072;-77
2022/12/23 06:14:57;;;;;;;2.63;0.68;;;;;;;9.45;100.00;99356.66;5057681;28;20091;-77
2022/12/23 06:17:22;;;;;;;3.45;0.80;;;;;;;9.50;100.00;99365.31;5061722;28;20041;-76
2022/12/23 06:19:47;;;;;;;2.67;0.85;;;;;;;9.53;100.00;99372.28;5063782;28;20150;-76
2022/12/23 06:22:14;;;;;;;3.35;0.50;;;;;;;9.51;100.00;99369.72;5060528;28;20041;-76
2022/12/23 06:24:39;;;;;;;2.47;0.73;;;;;;;9.55;100.00;99370.50;5062774;28;20193;-76
2022/12/23 06:27:05;;;;;;;1.98;0.45;;;;;;;9.56;100.00;99373.13;5062168;28;20112;-76
2022/12/23 06:29:30;;;;;;;2.78;0.70;;;;;;;9.50;100.00;99373.22;5060160;28;20040;-76
2022/12/23 06:31:55;;;;;;;1.60;0.40;;;;;;;9.56;100.00;99370.47;5062949;28;20032;-76
2022/12/23 06:34:21;;;;;;;2.50;0.50;;;;;;;9.53;100.00;99373.16;5060248;28;20127;-76
2022/12/23 06:36:46;;;;;;;2.60;0.60;;;;;;;9.57;100.00;99380.09;5060620;28;20041;-77
2022/12/23 06:39:11;;;;;;;3.40;0.60;;;;;;;9.56;100.00;99373.13;5062243;28;20122;-76
2022/12/23 06:41:37;;;;;;;4.32;0.63;;;;;;;9.58;100.00;99380.97;5061418;28;20052;-76
2022/12/23 06:44:02;;;;;;;3.70;0.60;;;;;;;9.56;100.00;99373.13;5061680;28;20075;-76
2022/12/23 06:46:28;;;;;;;3.00;0.63;;;;;;;9.49;100.00;99384.66;5060866;28;20036;-77
2022/12/23 06:48:53;;;;;;;2.85;0.63;;;;;;;9.54;100.00;99388.06;5063089;28;20045;-77
2022/12/23 06:51:18;;;;;;;3.28;0.77;;;;;;;9.56;100.00;99383.66;5059625;28;20040;-76
2022/12/23 06:53:44;;;;;;;2.50;0.57;;;;;;;9.59;100.00;99388.84;5062124;28;20036;-76
2022/12/23 06:56:09;;;;;;;3.03;0.40;;;;;;;9.58;100.00;99399.41;5061899;28;20028;-77
2022/12/23 06:58:35;;;;;;;1.63;0.45;;;;;;;9.59;100.00;99399.38;5061152;28;20102;-77
2022/12/23 07:01:00;;;;;;;2.00;0.60;;;;;;;9.63;100.00;99400.19;5060934;28;20116;-77
2022/12/23 07:03:25;;;;;;;1.65;0.43;;;;;;;9.60;100.00;99410.78;5062377;28;20045;-76
2022/12/23 07:05:51;;;;;;;2.28;0.35;;;;;;;9.56;100.00;99404.72;5059350;28;20052;-77
2022/12/23 07:08:17;;;;;;;1.80;0.70;;;;;;;9.54;100.00;99401.25;5062234;28;20044;-76
2022/12/23 07:10:42;;;;;;;1.90;0.40;;;;;;;9.56;100.00;99407.34;5061675;28;20459;-77
2022/12/23 07:13:08;;;;;;;0.98;0.32;;;;;;;9.54;100.00;99416.19;5060967;28;20140;-77
2022/12/23 07:15:35;;;;;;;1.17;0.30;;;;;;;9.54;100.00;99405.66;5060739;28;20429;-77
2022/12/23 07:18:00;;;;;;;2.15;0.73;;;;;;;9.59;100.00;99407.28;5062216;28;20062;-77
2022/12/23 07:20:25;;;;;;;2.92;0.68;;;;;;;9.58;100.00;99416.06;5059661;28;20700;-77
2022/12/23 07:22:53;;;;;;;2.05;0.52;;;;;;;9.58;100.00;99410.81;5062705;28;20048;-77
2022/12/23 07:25:18;;;;;;;2.88;0.60;;;;;;;9.60;100.00;99419.56;5060150;28;20037;-76
2022/12/23 07:27:44;;;;;;;1.48;0.43;;;;;;;9.58;100.00;99409.94;5057852;28;20041;-77
2022/12/23 07:30:09;;;;;;;1.67;0.40;;;;;;;9.60;100.00;99419.56;5060715;28;20025;-77
2022/12/23 07:32:34;;;;;;;3.97;1.75;;;;;;;9.53;100.00;99428.47;5061755;28;20044;-77
2022/12/23 07:35:00;;;;;;;0.70;0.30;;;;;;;9.56;100.00;99433.69;5059477;28;20083;-77
2022/12/23 07:37:25;;;;;;;0.60;0.20;;;;;;;9.58;100.00;99437.16;5062674;28;20044;-76
2022/12/23 07:39:50;;;;;;;1.73;0.50;;;;;;;9.55;100.00;99437.22;5062404;28;20028;-77
2022/12/23 07:42:16;;;;;;;2.40;0.40;;;;;;;9.54;100.00;99442.53;5043370;28;20037;-76
2022/12/23 07:44:41;;;;;;;2.08;0.60;;;;;;;9.53;100.00;99452.16;5059648;28;20411;-76
2022/12/23 07:47:07;;;;;;;1.65;0.40;;;;;;;9.44;100.00;99447.09;5061231;28;20055;-76
2022/12/23 07:49:33;;;;;;;0.77;0.30;;;;;;;9.33;100.00;99454.34;5059793;28;20087;-76
2022/12/23 07:51:58;;;;;;;1.70;0.45;;;;;;;9.22;100.00;99446.59;5058328;28;20040;-77
2022/12/23 07:54:23;;;;;;;1.70;0.52;;;;;;;9.17;100.00;99446.72;5062491;28;20545;-76
2022/12/23 07:56:48;;;;;;;3.35;0.88;;;;;;;9.12;100.00;99445.91;5059374;28;20041;-76
2022/12/23 07:59:14;;;;;;;1.48;0.40;;;;;;;9.11;100.00;99453.81;5061172;28;20036;-76
2022/12/23 08:01:39;;;;;;;3.45;0.55;;;;;;;9.10;100.00;99446.84;5060822;28;20108;-76
2022/12/23 08:04:04;;;;;;;2.65;0.88;;;;;;;9.07;100.00;99447.75;5059981;28;20499;-76
2022/12/23 08:06:31;;;;;;;2.58;0.60;;;;;;;9.10;100.00;99450.34;5061415;28;20044;-76
2022/12/23 08:08:56;;;;;;;2.20;0.52;;;;;;;9.09;100.00;99450.34;5054925;28;20037;-76
2022/12/23 08:11:21;;;;;;;1.63;0.50;;;;;;;9.07;100.00;99452.16;5060310;28;20037;-76
2022/12/23 08:13:48;;;;;;;2.13;0.43;;;;;;;9.07;100.00;99446.91;5061421;28;20040;-76
2022/12/23 08:16:13;;;;;;;0.82;0.43;;;;;;;9.08;100.00;99448.63;5060418;28;20045;-76
2022/12/23 08:18:40;;;;;;;2.30;0.57;;;;;;;9.11;100.00;99444.16;5060087;28;20169;-76
2022/12/23 08:21:14;;;;;;;1.15;0.32;;;;;;;9.19;100.00;99447.53;5063078;28;20070;-76
2022/12/23 08:23:40;;;;;;;2.53;0.50;;;;;;;9.23;100.00;99455.41;5061045;28;20036;-76
2022/12/23 08:26:15;;;;;;;1.80;0.30;;;;;;;9.31;100.00;99453.50;5064396;28;20086;-76
2022/12/23 08:28:42;;;;;;;1.80;0.57;;;;;;;9.35;100.00;99461.31;5062550;28;20037;-76
2022/12/23 08:31:17;;;;;;;2.03;0.50;;;;;;;9.37;100.00;99458.63;5065413;28;20493;-76
2022/12/23 08:33:45;;;;;;;1.35;0.40;;;;;;;9.39;100.00;99454.22;5064870;28;20032;-76
2022/12/23 08:36:14;;;;;;;3.83;1.05;;;;;;;9.45;100.00;99462.00;5063814;28;20453;-76
2022/12/23 08:38:40;;;;;;;3.28;0.60;;;;;;;9.54;100.00;99463.59;5059976;28;20029;-76
2022/12/23 08:41:14;;;;;;;1.58;0.60;;;;;;;9.65;100.00;99472.16;5064519;28;20526;-76
2022/12/23 08:43:40;;;;;;;3.42;1.15;;;;;;;9.75;100.00;99470.22;5061336;28;20044;-76
2022/12/23 08:46:05;;;;;;;1.35;0.43;;;;;;;9.83;100.00;99471.78;5061837;28;20028;-76
2022/12/23 08:48:32;;;;;;;3.75;0.90;;;;;;;9.79;100.00;99464.84;5065344;28;20492;-76
2022/12/23 08:51:02;;;;;;;0.60;0.30;;;;;;;9.78;100.00;99475.44;5063140;28;20033;-76
2022/12/23 08:53:28;;;;;;;0.85;0.20;;;;;;;9.79;100.00;99470.09;5061792;28;20376;-76
2022/12/23 08:55:53;;;;;;;1.83;0.28;;;;;;;9.84;100.00;99480.56;5062100;28;20039;-76
2022/12/23 08:58:18;;;;;;;0.98;0.30;;;;;;;9.90;100.00;99469.88;5065252;28;20036;-77
2022/12/23 09:00:44;;;;;;;0.60;0.30;;;;;;;9.98;100.00;99470.63;5045530;28;20033;-77
2022/12/23 09:03:09;;;;;;;1.85;0.70;;;;;;;9.97;100.00;99476.78;5064515;28;20031;-76
2022/12/23 09:05:38;;;;;;;1.38;0.55;;;;;;;10.05;100.00;99479.25;5062989;28;20048;-76
2022/12/23 09:08:04;;;;;;;1.95;0.40;;;;;;;10.05;100.00;99493.31;5060110;28;20032;-77
2022/12/23 09:10:29;;;;;;;0.90;0.30;;;;;;;10.11;100.00;99487.03;5064975;28;20495;-76
2022/12/23 09:12:54;;;;;;;0.55;0.30;;;;;;;10.16;100.00;99482.53;5061571;28;20493;-76
2022/12/23 09:15:19;;;;;;;2.17;0.73;;;;;;;10.21;100.00;99492.97;5064573;28;20052;-77
2022/12/23 09:17:45;;;;;;;1.60;0.38;;;;;;;10.29;100.00;99489.31;5060515;28;20040;-77
2022/12/23 09:20:10;;;;;;;0.95;0.30;;;;;;;10.33;100.00;99484.84;5063340;28;20051;-77
2022/12/23 09:22:36;;;;;;;1.58;0.50;;;;;;;10.38;100.00;99490.91;5061553;28;20048;-77
2022/12/23 09:25:01;;;;;;;1.20;0.52;;;;;;;10.40;100.00;99489.09;5064409;28;20048;-77
2022/12/23 09:27:26;;;;;;;1.10;0.40;;;;;;;10.41;100.00;99490.81;5078088;23;20053;-77
2022/12/23 09:29:52;;;;;;;1.95;0.70;;;;;;;10.42;100.00;99478.50;5073097;28;20040;-77
2022/12/23 09:32:18;;;;;;;0.60;0.30;;;;;;;10.44;100.00;99487.25;5072328;28;20052;-77
2022/12/23 09:34:43;;;;;;;1.27;0.50;;;;;;;10.34;100.00;99499.75;5073134;28;20029;-77
2022/12/23 09:37:08;;;;;;;0.63;0.20;;;;;;;10.37;100.00;99502.31;5072693;28;20127;-77
2022/12/23 09:39:34;;;;;;;1.35;0.30;;;;;;;10.44;100.00;99505.72;5072924;28;20040;-77
2022/12/23 09:42:13;;;;;;;1.60;0.47;;;;;;;10.37;100.00;99502.31;5073046;28;20055;-77
2022/12/23 09:44:46;;;;;;;2.08;0.30;;;;;;;10.40;100.00;99489.09;5071098;28;20039;-77
2022/12/23 09:47:16;;;;;;;;;;;;;;;10.41;100.00;99505.78;5072982;28;20039;-77
2022/12/23 09:49:47;;;;;;;1.25;0.40;;;;;;;10.49;100.00;99507.34;5069443;28;20435;-77
2022/12/23 09:52:42;;;;;;;2.70;0.43;;;;;;;10.59;100.00;99509.78;5072837;28;20042;-76
2022/12/23 09:55:10;;;;;;;1.65;0.43;;;;;;;10.63;100.00;99522.00;5040423;28;20106;-77
2022/12/23 09:57:49;;;;;;;1.00;0.20;;;;;;;10.65;100.00;99509.66;5072322;28;20046;-77
2022/12/23 10:00:17;;;;;;;0.90;0.40;;;;;;;10.62;100.00;99515.84;5072579;28;20114;-76
2022/12/23 10:03:07;;;;;;;1.60;0.40;;;;;;;10.67;100.00;99513.97;5072612;28;20085;-77
2022/12/23 10:05:48;;;;;;;2.55;1.42;;;;;;;10.63;100.00;99522.00;5071750;28;20039;-77
2022/12/23 10:08:37;;;;;;;0.60;0.20;;;;;;;10.55;100.00;99519.53;5070746;28;20044;-76
2022/12/23 10:11:21;;;;;;;1.27;0.52;;;;;;;10.63;100.00;99529.91;5070408;28;20306;-77
2022/12/23 10:13:55;;;;;;;2.97;0.50;;;;;;;10.65;100.00;99523.69;5070019;28;20131;-76
2022/12/23 10:16:25;;;;;;;1.35;0.65;;;;;;;10.66;100.00;99527.19;5072019;28;20032;-77
2022/12/23 10:18:58;;;;;;;1.02;0.40;;;;;;;10.71;100.00;99528.81;5067434;28;20081;-76
2022/12/23 10:21:41;;;;;;;1.67;0.38;;;;;;;10.75;100.00;99527.00;5072121;28;20081;-77
2022/12/23 10:24:20;;;;;;;1.30;0.40;;;;;;;10.77;100.00;99516.41;5069661;28;20036;-76
2022/12/23 10:27:09;;;;;;;2.15;0.35;;;;;;;10.88;100.00;99530.22;5071544;28;20036;-76
2022/12/23 10:29:35;;;;;;;3.08;0.52;;;;;;;10.91;100.00;99535.44;5060456;28;20083;-76
2022/12/23 10:32:26;;;;;;;2.30;0.50;;;;;;;10.94;100.00;99525.66;5079642;28;20072;-77
2022/12/23 10:34:59;;;;;;;2.50;0.65;;;;;;;10.89;100.00;99524.91;5068760;28;20071;-77
2022/12/23 10:37:47;;;;;;;3.95;1.35;;;;;;;10.89;100.00;99509.06;5071502;28;20037;-77
2022/12/23 10:40:19;;;;;;;1.95;0.80;;;;;;;10.84;100.00;99516.22;5070193;28;20044;-77
2022/12/23 10:42:52;;;;;;;5.15;0.60;;;;;;;10.84;100.00;99510.94;5070660;28;20429;-77
2022/12/23 10:45:34;;;;;;;1.75;0.50;;;;;;;10.78;100.00;99508.47;5071481;28;20039;-77
2022/12/23 10:48:31;;;;;;;1.73;0.57;;;;;;;10.73;100.00;99505.91;5069417;28;20131;-77
2022/12/23 10:51:02;;;;;;;1.50;0.70;;;;;;;10.75;100.00;99511.16;5069153;28;20051;-77
2022/12/23 10:53:38;;;;;;;1.45;0.65;;;;;;;10.88;100.00;99511.75;5071355;28;20032;-77
2022/12/23 10:56:05;;;;;;;1.92;0.40;;;;;;;10.92;100.00;99506.34;5068305;28;20068;-77
2022/12/23 10:58:30;;;;;;;1.88;0.60;;;;;;;11.05;100.00;99516.63;5071462;28;20044;-77
2022/12/23 11:00:59;;;;;;;1.45;0.40;;;;;;;11.04;100.00;99514.91;5071512;28;20047;-77
2022/12/23 11:03:35;;;;;;;1.13;0.40;;;;;;;11.04;100.00;99518.41;5071410;28;20041;-77
2022/12/23 11:06:01;;;;;;;1.70;0.85;;;;;;;11.06;100.00;99515.72;5070931;28;20494;-77
2022/12/23 11:08:30;;;;;;;1.98;0.70;;;;;;;11.04;100.00;99513.13;5071447;28;20134;-77
2022/12/23 11:10:55;;;;;;;1.13;0.52;;;;;;;11.06;100.00;99507.81;5068564;28;20032;-77
2022/12/23 11:13:38;;;;;;;1.73;0.70;;;;;;;11.09;100.00;99521.78;5067888;28;20060;-77
2022/12/23 11:16:17;;;;;;;3.05;0.57;;;;;;;11.14;100.00;99519.06;5070992;28;20463;-76
2022/12/23 11:18:55;;;;;;;2.42;0.57;;;;;;;11.13;100.00;99507.63;5068984;28;20050;-77
2022/12/23 11:21:21;;;;;;;1.20;0.50;;;;;;;11.10;100.00;99514.72;5066974;28;20082;-77
2022/12/23 11:23:46;;;;;;;2.70;0.60;;;;;;;11.03;100.00;99513.13;5069056;28;20036;-77
2022/12/23 11:26:17;;;;;;;2.28;0.60;;;;;;;11.03;100.00;99514.03;5070765;28;20115;-77
2022/12/23 11:28:51;;;;;;;5.78;0.77;;;;;;;11.06;100.00;99521.88;5071025;28;20041;-77
2022/12/23 11:31:26;;;;;;;1.60;0.57;;;;;;;11.20;100.00;99518.88;5067818;28;20116;-77
2022/12/23 11:34:00;;;;;;;1.83;0.70;;;;;;;11.32;100.00;99528.28;5071107;28;20036;-77
2022/12/23 11:36:28;;;;;;;1.48;0.60;;;;;;;11.45;100.00;99523.53;5067209;28;20039;-76
2022/12/23 11:39:24;;;;;;;1.63;0.65;;;;;;;11.56;100.00;99521.50;5071064;28;20051;-77
2022/12/23 11:41:51;;;;;;;2.20;0.65;;;;;;;11.70;100.00;99523.78;5069377;28;20028;-77
2022/12/23 11:44:20;;;;;;;2.95;0.85;;;;;;;11.72;100.00;99532.53;5070754;28;20131;-77
2022/12/23 11:46:45;;;;;;;2.92;0.95;;;;;;;11.68;100.00;99539.66;5069093;28;20093;-77
2022/12/23 11:49:21;;;;;;;3.05;1.10;;;;;;;11.80;100.00;99526.13;5071058;28;20037;-77
2022/12/23 11:52:00;;;;;;;1.83;0.80;;;;;;;11.83;100.00;99535.75;5070859;28;20036;-77
2022/12/23 11:54:25;;;;;;;2.80;0.98;;;;;;;11.74;100.00;99528.09;5069030;28;20070;-77
2022/12/23 11:56:52;;;;;;;3.85;0.90;;;;;;;11.67;100.00;99522.06;5073523;28;20040;-77
2022/12/23 11:59:48;;;;;;;2.35;0.80;;;;;;;11.83;100.00;99511.94;5074982;28;20387;-77
2022/12/23 12:02:24;;;;;;;2.20;0.98;;;;;;;11.80;100.00;99518.19;5061992;28;20105;-77
2022/12/23 12:05:03;;;;;;;2.58;1.00;;;;;;;11.71;100.00;99526.38;5074831;28;20170;-77
2022/12/23 12:07:29;;;;;;;1.80;0.68;;;;;;;11.66;100.00;99522.09;5070907;28;20039;-77
2022/12/23 12:10:00;;;;;;;2.58;0.98;;;;;;;11.58;100.00;99524.94;5074690;28;20131;-77